Masjed Soleyman, Iran
Current Conditions -  °F | °C
As of 9:00 PM on Monday 26 Jan 2015 (Local Time) from OIAW Reporting Station
Scattered Clouds Scattered Clouds  
Wind Chill: 16°   Ceiling: Unl
Heat Index: 16°   Visibility: 6mi
Dew Point:   Wind: 2mph
Humidity: 36%   Direction: 180°S
Pressure: 30.12"   Gusts: NA
Location:  31.94°N, 49.31°E
Report Text: OIAW 261800Z 18002KT 9999 FEW035CB SCT040 16/01 Q1020
Loading
Personal Weather Stations






























Interactive Weather Map New forecast layout! Learn more

10-Day Weather Forecast

Advertisements
Track Severe Weather on mobile